Adirondack, New York
Current Conditions -  °F | °C
As of 8:44 AM on Monday 24 Nov 2014 (Local Time) from KGFL Reporting Station
Light Rain Light Rain  
Wind Chill: 50°   Ceiling: 400
Heat Index: 50°   Visibility: 1mi
Dew Point: 48°   Wind: 5mph
Humidity: 93%   Direction: 230°SW
Pressure: 29.57"   Gusts: NA
Location:  43.76°N, 73.76°W
Report Text: KGFL 241344Z AUTO 23004KT 1SM -RA BR OVC004 10/09 A2957 RMK AO2 P0003 T01000089
Loading
Personal Weather Stations






























Interactive Weather Map New forecast layout! Learn more

10-Day Weather Forecast

Advertisements
Track Severe Weather on mobile